createdAt,value
2022-10-26T00:00:22.523Z,20.15
2022-10-26T00:00:53.925Z,20.15
2022-10-26T00:01:25.389Z,20.15
2022-10-26T00:01:56.898Z,20.14
2022-10-26T00:02:28.383Z,20.14
2022-10-26T00:02:59.858Z,20.13
2022-10-26T00:03:31.294Z,20.12
2022-10-26T00:04:02.670Z,20.12
2022-10-26T00:04:34.081Z,20.13
2022-10-26T00:05:05.498Z,20.13
2022-10-26T00:05:36.899Z,20.13
2022-10-26T00:06:08.356Z,20.13
2022-10-26T00:06:39.750Z,20.11
2022-10-26T00:07:11.147Z,20.11
2022-10-26T00:07:42.570Z,20.10
2022-10-26T00:08:13.967Z,20.10
2022-10-26T00:08:45.375Z,20.11
2022-10-26T00:09:16.775Z,20.11
2022-10-26T00:09:48.170Z,20.10
2022-10-26T00:10:19.551Z,20.10
2022-10-26T00:10:50.939Z,20.10
2022-10-26T00:11:22.412Z,20.10
2022-10-26T00:11:53.815Z,20.10
2022-10-26T00:12:25.194Z,20.09
2022-10-26T00:12:56.585Z,20.08
2022-10-26T00:13:27.978Z,20.08
2022-10-26T00:13:59.364Z,20.08
2022-10-26T00:14:30.746Z,20.08
2022-10-26T00:15:02.286Z,20.08
2022-10-26T00:15:33.671Z,20.07
2022-10-26T00:16:05.069Z,20.07
2022-10-26T00:16:36.591Z,20.06
2022-10-26T00:17:07.972Z,20.07
2022-10-26T00:17:39.351Z,20.07
2022-10-26T00:18:10.761Z,20.06
2022-10-26T00:18:42.170Z,20.06
2022-10-26T00:19:13.559Z,20.05
2022-10-26T00:19:44.942Z,20.06
2022-10-26T00:20:16.419Z,20.05
2022-10-26T00:20:47.799Z,20.06
2022-10-26T00:21:19.241Z,20.05
2022-10-26T00:21:50.724Z,20.05
2022-10-26T00:22:22.102Z,20.05
2022-10-26T00:22:53.488Z,20.04
2022-10-26T00:23:24.868Z,20.04
2022-10-26T00:23:56.263Z,20.04
2022-10-26T00:24:27.658Z,20.04
2022-10-26T00:24:59.037Z,20.04
2022-10-26T00:25:30.438Z,20.05
2022-10-26T00:26:01.837Z,20.04
2022-10-26T00:26:33.218Z,20.04
2022-10-26T00:27:04.694Z,20.03
2022-10-26T00:27:36.074Z,20.03
2022-10-26T00:28:07.460Z,20.02
2022-10-26T00:28:38.900Z,20.03
2022-10-26T00:29:10.283Z,20.02
2022-10-26T00:29:41.671Z,20.02
2022-10-26T00:30:13.065Z,20.01
2022-10-26T00:30:44.467Z,20.02
2022-10-26T00:31:15.856Z,20.02
2022-10-26T00:31:47.260Z,20.01
2022-10-26T00:32:18.677Z,20.00
2022-10-26T00:32:50.085Z,20.01
2022-10-26T00:33:21.471Z,20.01
2022-10-26T00:33:52.878Z,20.00
2022-10-26T00:34:24.279Z,20.01
2022-10-26T00:34:55.679Z,19.99
2022-10-26T00:35:41.394Z,19.99
2022-10-26T00:36:16.879Z,19.98
2022-10-26T00:36:48.378Z,19.99
2022-10-26T00:37:19.816Z,19.99
2022-10-26T00:37:51.393Z,19.97
2022-10-26T00:38:22.975Z,19.97
2022-10-26T00:38:54.355Z,19.96
2022-10-26T00:39:25.755Z,19.97
2022-10-26T00:39:57.136Z,19.95
2022-10-26T00:40:28.542Z,19.96
2022-10-26T00:41:00.001Z,19.96
2022-10-26T00:41:31.418Z,19.95
2022-10-26T00:42:02.809Z,19.96
2022-10-26T00:42:34.265Z,19.94
2022-10-26T00:43:05.676Z,19.94
2022-10-26T00:43:37.077Z,19.94
2022-10-26T00:44:08.469Z,19.93
2022-10-26T00:44:39.868Z,19.93
2022-10-26T00:45:11.279Z,19.93
2022-10-26T00:45:42.655Z,19.93
2022-10-26T00:46:14.344Z,19.94
2022-10-26T00:46:45.724Z,19.93
2022-10-26T00:47:17.129Z,19.93
2022-10-26T00:47:48.656Z,19.92
2022-10-26T00:48:20.041Z,19.92
2022-10-26T00:48:51.438Z,19.91
2022-10-26T00:49:22.841Z,19.91
2022-10-26T00:49:54.227Z,19.92
2022-10-26T00:50:25.648Z,19.90
2022-10-26T00:50:57.029Z,19.90
2022-10-26T00:51:28.445Z,19.92
2022-10-26T00:51:59.852Z,19.91
2022-10-26T00:52:31.266Z,19.90
2022-10-26T00:53:02.803Z,19.89
2022-10-26T00:53:34.241Z,19.90
2022-10-26T00:54:05.619Z,19.89
2022-10-26T00:54:37.001Z,19.89
2022-10-26T00:55:08.396Z,19.89
2022-10-26T00:55:39.783Z,19.88
2022-10-26T00:56:11.184Z,19.88
2022-10-26T00:56:42.594Z,19.88
2022-10-26T00:57:13.987Z,19.88
2022-10-26T00:57:45.375Z,19.87
2022-10-26T00:58:16.866Z,19.88
2022-10-26T00:58:48.251Z,19.88
2022-10-26T00:59:19.645Z,19.88
2022-10-26T00:59:51.023Z,19.87
2022-10-26T01:00:22.423Z,19.88
2022-10-26T01:00:53.822Z,19.87
2022-10-26T01:01:25.272Z,19.87
2022-10-26T01:01:56.691Z,19.86
2022-10-26T01:02:28.095Z,19.86
2022-10-26T01:02:59.479Z,19.87
2022-10-26T01:03:31.095Z,19.86
2022-10-26T01:04:02.554Z,19.87
2022-10-26T01:04:33.960Z,19.86
2022-10-26T01:05:05.362Z,19.86
2022-10-26T01:05:36.813Z,19.86
2022-10-26T01:06:08.215Z,19.86
2022-10-26T01:06:39.623Z,19.85
2022-10-26T01:07:11.082Z,19.85
2022-10-26T01:07:42.548Z,19.85
2022-10-26T01:08:13.925Z,19.85
2022-10-26T01:08:45.396Z,19.84
2022-10-26T01:09:16.793Z,19.84
2022-10-26T01:09:48.172Z,19.83
2022-10-26T01:10:19.569Z,19.84
2022-10-26T01:10:50.953Z,19.84
2022-10-26T01:11:22.357Z,19.82
2022-10-26T01:11:53.755Z,19.83
2022-10-26T01:12:25.139Z,19.83
2022-10-26T01:12:56.519Z,19.83
2022-10-26T01:13:27.920Z,19.82
2022-10-26T01:13:59.471Z,19.83
2022-10-26T01:14:30.856Z,19.82
2022-10-26T01:15:02.249Z,19.81
2022-10-26T01:15:33.627Z,19.81
2022-10-26T01:16:05.023Z,19.82
2022-10-26T01:16:38.446Z,19.81
2022-10-26T01:17:12.132Z,19.81
2022-10-26T01:17:43.534Z,19.81
2022-10-26T01:18:14.930Z,19.79
2022-10-26T01:18:46.331Z,19.79
2022-10-26T01:19:17.815Z,19.81
2022-10-26T01:19:49.221Z,19.79
2022-10-26T01:20:20.624Z,19.79
2022-10-26T01:20:52.028Z,19.79
2022-10-26T01:21:23.402Z,19.81
2022-10-26T01:21:54.800Z,19.79
2022-10-26T01:22:26.190Z,19.78
2022-10-26T01:22:57.591Z,19.78
2022-10-26T01:23:28.967Z,19.78
2022-10-26T01:24:00.420Z,19.78
2022-10-26T01:24:31.851Z,19.78
2022-10-26T01:25:03.242Z,19.78
2022-10-26T01:25:34.623Z,19.77
2022-10-26T01:26:06.007Z,19.77
2022-10-26T01:26:37.407Z,19.78
2022-10-26T01:27:08.809Z,19.77
2022-10-26T01:27:40.193Z,19.77
2022-10-26T01:28:11.660Z,19.76
2022-10-26T01:28:43.050Z,19.76
2022-10-26T01:29:14.448Z,19.76
2022-10-26T01:29:45.941Z,19.76
2022-10-26T01:30:17.334Z,19.75
2022-10-26T01:30:48.717Z,19.74
2022-10-26T01:31:20.099Z,19.75
2022-10-26T01:31:51.524Z,19.76
2022-10-26T01:32:22.928Z,19.74
2022-10-26T01:32:54.308Z,19.75
2022-10-26T01:33:25.706Z,19.74
2022-10-26T01:33:57.103Z,19.73
2022-10-26T01:34:28.524Z,19.74
2022-10-26T01:35:00.235Z,19.73
2022-10-26T01:35:31.614Z,19.72
2022-10-26T01:36:02.991Z,19.71
2022-10-26T01:36:34.374Z,19.72
2022-10-26T01:37:05.771Z,19.72
2022-10-26T01:37:37.158Z,19.71
2022-10-26T01:38:08.629Z,19.71
2022-10-26T01:38:40.026Z,19.71
2022-10-26T01:39:11.430Z,19.71
2022-10-26T01:39:42.807Z,19.71
2022-10-26T01:40:14.248Z,19.70
2022-10-26T01:40:45.659Z,19.70
2022-10-26T01:41:17.039Z,19.70
2022-10-26T01:41:48.418Z,19.71
2022-10-26T01:42:19.802Z,19.71
2022-10-26T01:42:51.194Z,19.70
2022-10-26T01:43:22.592Z,19.70
2022-10-26T01:43:53.967Z,19.70
2022-10-26T01:44:25.367Z,19.70
2022-10-26T01:44:56.761Z,19.70
2022-10-26T01:45:28.227Z,19.69
2022-10-26T01:45:59.625Z,19.69
2022-10-26T01:46:31.022Z,19.69
2022-10-26T01:47:02.408Z,19.69
2022-10-26T01:47:33.802Z,19.69
2022-10-26T01:48:05.203Z,19.68
2022-10-26T01:48:36.607Z,19.68
2022-10-26T01:49:07.985Z,19.69
2022-10-26T01:49:39.370Z,19.68
2022-10-26T01:50:10.751Z,19.67
2022-10-26T01:50:42.258Z,19.67
2022-10-26T01:51:13.634Z,19.67
2022-10-26T01:51:45.032Z,19.68
2022-10-26T01:52:16.412Z,19.67
2022-10-26T01:52:47.791Z,19.68
2022-10-26T01:53:19.195Z,19.65
2022-10-26T01:53:50.583Z,19.68
2022-10-26T01:54:21.964Z,19.68
2022-10-26T01:54:53.347Z,19.67
2022-10-26T01:55:24.739Z,19.66
2022-10-26T01:55:56.239Z,19.65
2022-10-26T01:56:27.643Z,19.65
2022-10-26T01:56:59.052Z,19.66
2022-10-26T01:57:30.450Z,19.65
2022-10-26T01:58:01.843Z,19.64
2022-10-26T01:58:33.226Z,19.64
2022-10-26T01:59:04.614Z,19.64
2022-10-26T01:59:36.014Z,19.65
2022-10-26T02:00:07.406Z,19.65
2022-10-26T02:00:38.811Z,19.64
2022-10-26T02:01:10.336Z,19.64
2022-10-26T02:01:41.779Z,19.64
2022-10-26T02:02:13.216Z,19.64
2022-10-26T02:02:44.595Z,19.63
2022-10-26T02:03:16.011Z,19.63
2022-10-26T02:03:47.489Z,19.62
2022-10-26T02:04:19.015Z,19.62
2022-10-26T02:04:50.455Z,19.62
2022-10-26T02:05:21.858Z,19.62
2022-10-26T02:05:53.242Z,19.62
2022-10-26T02:06:24.648Z,19.61
2022-10-26T02:06:56.069Z,19.61
2022-10-26T02:07:27.448Z,19.60
2022-10-26T02:07:58.859Z,19.60
2022-10-26T02:08:30.247Z,19.60
2022-10-26T02:09:01.748Z,19.60
2022-10-26T02:09:33.126Z,19.61
2022-10-26T02:10:04.512Z,19.60
2022-10-26T02:10:35.926Z,19.60
2022-10-26T02:11:07.318Z,19.61
2022-10-26T02:11:38.719Z,19.60
2022-10-26T02:12:10.099Z,19.60
2022-10-26T02:12:41.514Z,19.60
2022-10-26T02:13:12.905Z,19.60
2022-10-26T02:13:44.305Z,19.59
2022-10-26T02:14:51.983Z,19.59
2022-10-26T02:15:23.384Z,19.59
2022-10-26T02:15:54.763Z,19.59
2022-10-26T02:16:26.143Z,19.58
2022-10-26T02:16:57.548Z,19.58
2022-10-26T02:17:28.935Z,19.58
2022-10-26T02:18:00.321Z,19.58
2022-10-26T02:18:31.790Z,19.58
2022-10-26T02:19:03.199Z,19.57
2022-10-26T02:19:34.604Z,19.56
2022-10-26T02:20:05.982Z,19.57
2022-10-26T02:20:37.360Z,19.56
2022-10-26T02:21:08.740Z,19.57
2022-10-26T02:21:40.120Z,19.56
2022-10-26T02:22:11.537Z,19.56
2022-10-26T02:22:42.923Z,19.56
2022-10-26T02:23:14.322Z,19.56
2022-10-26T02:23:45.707Z,19.56
2022-10-26T02:24:17.108Z,19.56
2022-10-26T02:24:48.491Z,19.55
2022-10-26T02:25:19.875Z,19.55
2022-10-26T02:25:51.270Z,19.54
2022-10-26T02:26:22.651Z,19.54
2022-10-26T02:26:54.042Z,19.54
2022-10-26T02:27:25.507Z,19.54
2022-10-26T02:27:56.914Z,19.54
2022-10-26T02:28:28.312Z,19.54
2022-10-26T02:28:59.705Z,19.53
2022-10-26T02:29:31.106Z,19.54
2022-10-26T02:30:02.506Z,19.52
2022-10-26T02:30:33.889Z,19.52
2022-10-26T02:31:05.278Z,19.53
2022-10-26T02:31:36.655Z,19.52
2022-10-26T02:32:08.056Z,19.52
2022-10-26T02:32:39.657Z,19.52
2022-10-26T02:33:11.042Z,19.53
2022-10-26T02:33:42.473Z,19.51
2022-10-26T02:34:13.875Z,19.51
2022-10-26T02:34:45.254Z,19.51
2022-10-26T02:35:16.661Z,19.52
2022-10-26T02:35:48.062Z,19.50
2022-10-26T02:36:19.443Z,19.51
2022-10-26T02:36:50.831Z,19.51
2022-10-26T02:37:22.232Z,19.50
2022-10-26T02:37:53.716Z,19.50
2022-10-26T02:38:25.095Z,19.51
2022-10-26T02:38:56.471Z,19.50
2022-10-26T02:39:27.871Z,19.50
2022-10-26T02:39:59.271Z,19.49
2022-10-26T02:40:30.658Z,19.51
2022-10-26T02:41:02.049Z,19.49
2022-10-26T02:41:33.464Z,19.49
2022-10-26T02:42:04.852Z,19.48
2022-10-26T02:42:36.235Z,19.48
2022-10-26T02:43:07.673Z,19.48
2022-10-26T02:43:39.052Z,19.47
2022-10-26T02:44:10.457Z,19.48
2022-10-26T02:44:41.846Z,19.49
2022-10-26T02:45:13.232Z,19.49
2022-10-26T02:45:44.612Z,19.47
2022-10-26T02:46:16.012Z,19.48
2022-10-26T02:46:47.412Z,19.47
2022-10-26T02:47:18.792Z,19.46
2022-10-26T02:47:50.404Z,19.46
2022-10-26T02:48:22.033Z,19.46
2022-10-26T02:48:53.411Z,19.45
2022-10-26T02:49:24.787Z,19.46
2022-10-26T02:49:56.188Z,19.46
2022-10-26T02:50:27.562Z,19.46
2022-10-26T02:50:58.963Z,19.44
2022-10-26T02:51:30.381Z,19.44
2022-10-26T02:52:01.772Z,19.45
2022-10-26T02:52:33.162Z,19.44
2022-10-26T02:53:04.545Z,19.44
2022-10-26T02:53:36.024Z,19.43
2022-10-26T02:54:07.428Z,19.44
2022-10-26T02:54:38.799Z,19.44
2022-10-26T02:55:10.186Z,19.44
2022-10-26T02:55:41.592Z,19.44
2022-10-26T02:56:12.970Z,19.43
2022-10-26T02:56:44.370Z,19.42
2022-10-26T02:57:15.762Z,19.42
2022-10-26T02:57:47.134Z,19.43
2022-10-26T02:58:18.542Z,19.42
2022-10-26T02:58:50.070Z,19.42
2022-10-26T02:59:21.451Z,19.42
2022-10-26T02:59:52.843Z,19.42
2022-10-26T03:00:24.239Z,19.42
2022-10-26T03:00:55.651Z,19.42
2022-10-26T03:01:27.074Z,19.41
2022-10-26T03:01:58.492Z,19.41
2022-10-26T03:02:29.871Z,19.40
2022-10-26T03:03:01.269Z,19.41
2022-10-26T03:03:32.643Z,19.39
2022-10-26T03:04:04.178Z,19.41
2022-10-26T03:04:35.589Z,19.41
2022-10-26T03:05:06.992Z,19.40
2022-10-26T03:05:38.380Z,19.40
2022-10-26T03:06:09.759Z,19.40
2022-10-26T03:06:41.151Z,19.39
2022-10-26T03:07:12.650Z,19.39
2022-10-26T03:07:44.044Z,19.38
2022-10-26T03:08:15.461Z,19.40
2022-10-26T03:08:46.898Z,19.39
2022-10-26T03:09:20.190Z,19.39
2022-10-26T03:09:53.667Z,19.38
2022-10-26T03:10:25.057Z,19.37
2022-10-26T03:10:56.451Z,19.38
2022-10-26T03:11:27.851Z,19.38
2022-10-26T03:11:59.255Z,19.38
2022-10-26T03:12:30.641Z,19.37
2022-10-26T03:13:02.057Z,19.38
2022-10-26T03:13:33.459Z,19.38
2022-10-26T03:14:04.864Z,19.38
2022-10-26T03:14:36.347Z,19.36
2022-10-26T03:15:07.763Z,19.36
2022-10-26T03:15:39.172Z,19.37
2022-10-26T03:16:10.559Z,19.36
2022-10-26T03:16:42.011Z,19.37
2022-10-26T03:17:13.425Z,19.35
2022-10-26T03:17:44.815Z,19.36
2022-10-26T03:18:16.205Z,19.36
2022-10-26T03:18:47.613Z,19.35
2022-10-26T03:19:18.991Z,19.34
2022-10-26T03:19:50.520Z,19.34
2022-10-26T03:20:21.954Z,19.34
2022-10-26T03:20:53.352Z,19.34
2022-10-26T03:21:24.757Z,19.34
2022-10-26T03:21:56.184Z,19.33
2022-10-26T03:22:27.582Z,19.34
2022-10-26T03:22:58.983Z,19.33
2022-10-26T03:23:30.602Z,19.34
2022-10-26T03:24:02.015Z,19.33
2022-10-26T03:24:33.404Z,19.34
2022-10-26T03:25:04.929Z,19.33
2022-10-26T03:25:36.362Z,19.33
2022-10-26T03:26:07.768Z,19.33
2022-10-26T03:26:39.154Z,19.32
2022-10-26T03:27:10.541Z,19.33
2022-10-26T03:27:41.942Z,19.33
2022-10-26T03:28:13.331Z,19.32
2022-10-26T03:28:44.716Z,19.31
2022-10-26T03:29:16.107Z,19.32
2022-10-26T03:29:47.504Z,19.32
2022-10-26T03:30:19.029Z,19.31
2022-10-26T03:30:50.417Z,19.31
2022-10-26T03:31:21.874Z,19.31
2022-10-26T03:31:53.285Z,19.31
2022-10-26T03:32:24.673Z,19.30
2022-10-26T03:32:56.053Z,19.31
2022-10-26T03:33:28.042Z,19.30
2022-10-26T03:33:59.520Z,19.30
2022-10-26T03:34:30.910Z,19.30
2022-10-26T03:35:02.328Z,19.29
2022-10-26T03:35:33.761Z,19.29
2022-10-26T03:36:05.150Z,19.29
2022-10-26T03:36:36.535Z,19.29
2022-10-26T03:37:07.926Z,19.29
2022-10-26T03:37:39.316Z,19.29
2022-10-26T03:38:15.176Z,19.29
2022-10-26T03:38:47.483Z,19.28
2022-10-26T03:39:18.872Z,19.28
2022-10-26T03:39:50.252Z,19.28
2022-10-26T03:40:21.645Z,19.28
2022-10-26T03:40:53.215Z,19.29
2022-10-26T03:41:24.615Z,19.28
2022-10-26T03:41:56.049Z,19.28
2022-10-26T03:42:27.481Z,19.27
2022-10-26T03:42:58.862Z,19.27
2022-10-26T03:43:30.255Z,19.26
2022-10-26T03:44:01.656Z,19.26
2022-10-26T03:44:33.045Z,19.27
2022-10-26T03:45:04.439Z,19.26
2022-10-26T03:45:35.849Z,19.26
2022-10-26T03:46:07.348Z,19.25
2022-10-26T03:46:38.737Z,19.26
2022-10-26T03:47:10.133Z,19.26
2022-10-26T03:47:41.512Z,19.26
2022-10-26T03:48:12.919Z,19.25
2022-10-26T03:48:44.320Z,19.27
2022-10-26T03:49:15.704Z,19.25
2022-10-26T03:49:47.083Z,19.25
2022-10-26T03:50:18.493Z,19.25
2022-10-26T03:50:49.888Z,19.25
2022-10-26T03:51:21.420Z,19.25
2022-10-26T03:51:52.801Z,19.25
2022-10-26T03:52:24.204Z,19.23
2022-10-26T03:52:55.613Z,19.24
2022-10-26T03:53:27.017Z,19.23
2022-10-26T03:53:58.394Z,19.24
2022-10-26T03:54:29.775Z,19.24
2022-10-26T03:55:01.164Z,19.23
2022-10-26T03:55:32.543Z,19.24
2022-10-26T03:56:03.926Z,19.23
2022-10-26T03:56:35.364Z,19.22
2022-10-26T03:57:06.775Z,19.23
2022-10-26T03:57:38.166Z,19.23
2022-10-26T03:58:09.554Z,19.22
2022-10-26T03:58:40.946Z,19.22
2022-10-26T03:59:12.333Z,19.21
2022-10-26T03:59:43.749Z,19.21
2022-10-26T04:00:15.163Z,19.21
2022-10-26T04:00:46.549Z,19.22
2022-10-26T04:01:22.201Z,19.21
2022-10-26T04:01:56.780Z,19.21
2022-10-26T04:02:29.361Z,19.21
2022-10-26T04:03:00.768Z,19.21
2022-10-26T04:03:32.167Z,19.21
2022-10-26T04:04:03.589Z,19.21
2022-10-26T04:04:35.125Z,19.20
2022-10-26T04:05:06.540Z,19.20
2022-10-26T04:05:37.925Z,19.20
2022-10-26T04:06:09.319Z,19.20
2022-10-26T04:06:40.743Z,19.20
2022-10-26T04:07:12.212Z,19.19
2022-10-26T04:07:43.610Z,19.20
2022-10-26T04:08:15.013Z,19.20
2022-10-26T04:08:46.400Z,19.19
2022-10-26T04:09:17.789Z,19.19
2022-10-26T04:09:49.181Z,19.19
2022-10-26T04:10:20.561Z,19.19
2022-10-26T04:10:52.021Z,19.19
2022-10-26T04:11:23.416Z,19.19
2022-10-26T04:11:54.920Z,19.19
2022-10-26T04:12:26.321Z,19.19
2022-10-26T04:12:57.709Z,19.19
2022-10-26T04:13:29.108Z,19.20
2022-10-26T04:14:00.533Z,19.18
2022-10-26T04:14:31.962Z,19.19
2022-10-26T04:15:39.623Z,19.18
2022-10-26T04:16:11.009Z,19.17
2022-10-26T04:16:42.415Z,19.18
2022-10-26T04:17:13.976Z,19.18
2022-10-26T04:17:45.366Z,19.17
2022-10-26T04:18:16.758Z,19.17
2022-10-26T04:18:48.149Z,19.17
2022-10-26T04:19:19.540Z,19.17
2022-10-26T04:19:50.952Z,19.17
2022-10-26T04:20:22.378Z,19.16
2022-10-26T04:20:53.789Z,19.16
2022-10-26T04:21:25.179Z,19.16
2022-10-26T04:21:56.564Z,19.16
2022-10-26T04:22:28.053Z,19.15
2022-10-26T04:22:59.436Z,19.16
2022-10-26T04:23:30.838Z,19.15
2022-10-26T04:24:02.229Z,19.14
2022-10-26T04:24:33.613Z,19.14
2022-10-26T04:25:05.015Z,19.15
2022-10-26T04:25:36.412Z,19.14
2022-10-26T04:26:07.821Z,19.13
2022-10-26T04:26:39.204Z,19.13
2022-10-26T04:27:10.608Z,19.13
2022-10-26T04:27:42.108Z,19.14
2022-10-26T04:28:13.498Z,19.12
2022-10-26T04:28:44.900Z,19.12
2022-10-26T04:29:16.330Z,19.13
2022-10-26T04:29:47.737Z,19.11
2022-10-26T04:30:19.140Z,19.12
2022-10-26T04:30:50.533Z,19.12
2022-10-26T04:31:21.916Z,19.12
2022-10-26T04:31:53.340Z,19.10
2022-10-26T04:32:24.776Z,19.11
2022-10-26T04:32:56.280Z,19.11
2022-10-26T04:33:27.726Z,19.10
2022-10-26T04:33:59.123Z,19.11
2022-10-26T04:34:30.512Z,19.11
2022-10-26T04:35:01.957Z,19.10
2022-10-26T04:35:33.369Z,19.10
2022-10-26T04:36:04.765Z,19.10
2022-10-26T04:36:36.151Z,19.10
2022-10-26T04:37:07.541Z,19.10
2022-10-26T04:37:38.993Z,19.09
2022-10-26T04:38:10.440Z,19.10
2022-10-26T04:38:41.853Z,19.10
2022-10-26T04:39:13.260Z,19.10
2022-10-26T04:39:44.655Z,19.10
2022-10-26T04:40:16.099Z,19.09
2022-10-26T04:40:47.488Z,19.08
2022-10-26T04:41:18.884Z,19.09
2022-10-26T04:41:50.277Z,19.07
2022-10-26T04:42:21.665Z,19.08
2022-10-26T04:42:53.309Z,19.07
2022-10-26T04:43:24.904Z,19.07
2022-10-26T04:43:56.355Z,19.07
2022-10-26T04:44:27.739Z,19.09
2022-10-26T04:44:59.161Z,19.08
2022-10-26T04:45:30.556Z,19.07
2022-10-26T04:46:02.019Z,19.07
2022-10-26T04:46:33.403Z,19.07
2022-10-26T04:47:04.792Z,19.07
2022-10-26T04:47:36.180Z,19.07
2022-10-26T04:48:07.578Z,19.06
2022-10-26T04:48:39.069Z,19.06
2022-10-26T04:49:10.457Z,19.06
2022-10-26T04:49:41.849Z,19.06
2022-10-26T04:50:13.236Z,19.06
2022-10-26T04:50:44.637Z,19.06
2022-10-26T04:51:16.045Z,19.05
2022-10-26T04:51:47.436Z,19.04
2022-10-26T04:52:18.836Z,19.05
2022-10-26T04:52:50.428Z,19.04
2022-10-26T04:53:22.076Z,19.04
2022-10-26T04:53:53.545Z,19.04
2022-10-26T04:54:24.933Z,19.04
2022-10-26T04:54:56.351Z,19.03
2022-10-26T04:55:27.752Z,19.03
2022-10-26T04:55:59.137Z,19.03
2022-10-26T04:56:30.640Z,19.02
2022-10-26T04:57:02.027Z,19.03
2022-10-26T04:57:33.480Z,19.02
2022-10-26T04:58:04.875Z,19.02
2022-10-26T04:58:36.289Z,19.02
2022-10-26T04:59:07.810Z,19.03
2022-10-26T04:59:39.193Z,19.01
2022-10-26T05:00:10.594Z,19.02
2022-10-26T05:00:41.996Z,19.02
2022-10-26T05:01:13.433Z,19.03
2022-10-26T05:01:45.018Z,19.01
2022-10-26T05:02:16.637Z,19.02
2022-10-26T05:02:48.149Z,19.00
2022-10-26T05:03:19.527Z,19.00
2022-10-26T05:03:50.907Z,19.01
2022-10-26T05:04:22.374Z,19.01
2022-10-26T05:04:53.821Z,19.01
2022-10-26T05:05:25.260Z,19.01
2022-10-26T05:05:56.660Z,19.01
2022-10-26T05:06:28.072Z,18.99
2022-10-26T05:06:59.463Z,19.00
2022-10-26T05:07:30.860Z,19.01
2022-10-26T05:08:02.245Z,18.99
2022-10-26T05:08:33.633Z,18.99
2022-10-26T05:09:05.039Z,18.99
2022-10-26T05:09:36.547Z,18.99
2022-10-26T05:10:07.955Z,18.99
2022-10-26T05:10:39.361Z,18.98
2022-10-26T05:11:10.762Z,18.97
2022-10-26T05:11:42.176Z,18.98
2022-10-26T05:12:13.584Z,18.97
2022-10-26T05:12:44.964Z,18.98
2022-10-26T05:13:16.397Z,18.98
2022-10-26T05:13:47.810Z,18.98
2022-10-26T05:14:19.272Z,18.98
2022-10-26T05:14:50.822Z,18.97
2022-10-26T05:15:22.218Z,18.98
2022-10-26T05:15:53.604Z,18.99
2022-10-26T05:16:24.984Z,18.97
2022-10-26T05:16:56.404Z,18.98
2022-10-26T05:17:27.804Z,18.97
2022-10-26T05:17:59.209Z,18.97
2022-10-26T05:18:30.609Z,18.97
2022-10-26T05:19:02.000Z,18.96
2022-10-26T05:19:33.391Z,18.96
2022-10-26T05:20:04.956Z,18.96
2022-10-26T05:20:36.352Z,18.96
2022-10-26T05:21:07.742Z,18.97
2022-10-26T05:21:39.180Z,18.97
2022-10-26T05:22:10.605Z,18.95
2022-10-26T05:22:41.988Z,18.97
2022-10-26T05:23:13.373Z,18.95
2022-10-26T05:23:44.751Z,18.95
2022-10-26T05:24:16.157Z,18.96
2022-10-26T05:24:47.548Z,18.95
2022-10-26T05:25:19.029Z,18.95
2022-10-26T05:25:50.484Z,18.95
2022-10-26T05:26:21.872Z,18.94
2022-10-26T05:26:53.280Z,18.95
2022-10-26T05:27:24.685Z,18.93
2022-10-26T05:27:56.093Z,18.95
2022-10-26T05:28:27.475Z,18.93
2022-10-26T05:28:58.887Z,18.93
2022-10-26T05:29:30.275Z,18.93
2022-10-26T05:30:01.716Z,18.92
2022-10-26T05:30:33.196Z,18.92
2022-10-26T05:31:04.581Z,18.92
2022-10-26T05:31:36.042Z,18.93
2022-10-26T05:32:07.424Z,18.92
2022-10-26T05:32:38.813Z,18.92
2022-10-26T05:33:10.195Z,18.92
2022-10-26T05:33:41.601Z,18.93
2022-10-26T05:34:13.009Z,18.92
2022-10-26T05:34:44.415Z,18.92
2022-10-26T05:35:15.803Z,18.93
2022-10-26T05:35:47.230Z,18.92
2022-10-26T05:36:18.693Z,18.93
2022-10-26T05:36:50.456Z,18.93
2022-10-26T05:37:21.936Z,18.91
2022-10-26T05:37:53.713Z,18.92
2022-10-26T05:39:01.950Z,18.91
2022-10-26T05:39:33.854Z,18.91
2022-10-26T05:40:05.694Z,18.92
2022-10-26T05:40:38.113Z,18.92
2022-10-26T05:41:10.242Z,18.91
2022-10-26T05:41:42.116Z,18.91
2022-10-26T05:42:14.023Z,18.91
2022-10-26T05:42:46.398Z,18.91
2022-10-26T05:43:18.882Z,18.91
2022-10-26T05:43:50.767Z,18.91
2022-10-26T05:44:22.240Z,18.90
2022-10-26T05:44:53.634Z,18.91
2022-10-26T05:45:25.040Z,18.90
2022-10-26T05:45:56.429Z,18.90
2022-10-26T05:46:27.856Z,18.90
2022-10-26T05:46:59.303Z,18.89
2022-10-26T05:47:30.714Z,18.91
2022-10-26T05:48:03.132Z,18.89
2022-10-26T05:48:34.755Z,18.90
2022-10-26T05:49:06.147Z,18.90
2022-10-26T05:49:37.531Z,18.89
2022-10-26T05:50:08.920Z,18.89
2022-10-26T05:50:40.306Z,18.90
2022-10-26T05:51:11.727Z,18.89
2022-10-26T05:51:43.296Z,18.89
2022-10-26T05:52:14.685Z,18.88
2022-10-26T05:52:46.069Z,18.89
2022-10-26T05:53:17.464Z,18.89
2022-10-26T05:53:48.867Z,18.89
2022-10-26T05:54:20.254Z,18.88
2022-10-26T05:54:51.638Z,18.89
2022-10-26T05:55:23.025Z,18.88
2022-10-26T05:55:54.508Z,18.88
2022-10-26T05:56:25.896Z,18.88
2022-10-26T05:56:57.407Z,18.88
2022-10-26T05:57:28.787Z,18.88
2022-10-26T05:58:00.174Z,18.88
2022-10-26T05:58:31.560Z,18.88
2022-10-26T05:59:02.946Z,18.88
2022-10-26T05:59:34.343Z,18.88
2022-10-26T06:00:05.860Z,18.87
2022-10-26T06:00:37.256Z,18.87
2022-10-26T06:01:08.711Z,18.87
2022-10-26T06:01:40.193Z,18.86
2022-10-26T06:02:12.101Z,18.87
2022-10-26T06:02:43.667Z,18.86
2022-10-26T06:03:15.102Z,18.85
2022-10-26T06:03:46.506Z,18.86
2022-10-26T06:04:19.447Z,18.87
2022-10-26T06:04:50.871Z,18.86
2022-10-26T06:05:22.281Z,18.86
2022-10-26T06:05:53.806Z,18.87
2022-10-26T06:06:25.228Z,18.86
2022-10-26T06:06:56.618Z,18.86
2022-10-26T06:07:28.048Z,18.86
2022-10-26T06:07:59.460Z,18.86
2022-10-26T06:08:30.850Z,18.86
2022-10-26T06:09:02.273Z,18.86
2022-10-26T06:09:33.661Z,18.86
2022-10-26T06:10:05.078Z,18.85
2022-10-26T06:10:36.649Z,18.84
2022-10-26T06:11:08.043Z,18.85
2022-10-26T06:11:39.548Z,18.85
2022-10-26T06:12:12.644Z,18.84
2022-10-26T06:12:46.089Z,18.86
2022-10-26T06:13:17.589Z,18.85
2022-10-26T06:13:48.989Z,18.85
2022-10-26T06:14:20.445Z,18.85
2022-10-26T06:14:53.068Z,18.85
2022-10-26T06:15:24.778Z,18.85
2022-10-26T06:15:56.267Z,18.84
2022-10-26T06:16:27.754Z,18.85
2022-10-26T06:16:59.173Z,18.84
2022-10-26T06:17:30.620Z,18.86
2022-10-26T06:18:02.133Z,18.83
2022-10-26T06:18:33.621Z,18.84
2022-10-26T06:19:05.285Z,18.84
2022-10-26T06:19:36.728Z,18.83
2022-10-26T06:20:08.414Z,18.84
2022-10-26T06:20:40.011Z,18.84
2022-10-26T06:21:11.929Z,18.84
2022-10-26T06:21:43.485Z,18.84
2022-10-26T06:22:14.968Z,18.85
2022-10-26T06:22:46.566Z,18.85
2022-10-26T06:23:18.363Z,18.84
2022-10-26T06:23:50.092Z,18.85
2022-10-26T06:24:21.607Z,18.86
2022-10-26T06:24:53.065Z,18.85
2022-10-26T06:25:25.166Z,18.84
2022-10-26T06:25:56.904Z,18.85
2022-10-26T06:26:28.626Z,18.85
2022-10-26T06:27:00.195Z,18.85
2022-10-26T06:27:31.733Z,18.84
2022-10-26T06:28:03.404Z,18.85
2022-10-26T06:28:35.069Z,18.85
2022-10-26T06:29:06.564Z,18.85
2022-10-26T06:29:38.605Z,18.85
2022-10-26T06:30:10.028Z,18.84
2022-10-26T06:30:41.416Z,18.84
2022-10-26T06:31:14.648Z,18.84
2022-10-26T06:31:46.176Z,18.85
2022-10-26T06:32:17.638Z,18.85
2022-10-26T06:32:54.091Z,18.86
2022-10-26T06:33:30.138Z,18.86
2022-10-26T06:34:02.361Z,18.86
2022-10-26T06:34:33.804Z,18.87
2022-10-26T06:35:07.222Z,18.87
2022-10-26T06:35:38.935Z,18.86
2022-10-26T06:36:10.682Z,18.86
2022-10-26T06:36:42.688Z,18.86
2022-10-26T06:37:14.528Z,18.85
2022-10-26T06:37:46.197Z,18.86
2022-10-26T06:38:17.990Z,18.87
2022-10-26T06:38:49.633Z,18.87
2022-10-26T06:39:21.293Z,18.86
2022-10-26T06:39:54.814Z,18.87
2022-10-26T06:40:26.673Z,18.87
2022-10-26T06:40:58.299Z,18.87
2022-10-26T06:41:29.709Z,18.88
2022-10-26T06:42:01.098Z,18.88
2022-10-26T06:42:32.480Z,18.87
2022-10-26T06:43:03.895Z,18.88
2022-10-26T06:43:35.287Z,18.88
2022-10-26T06:44:06.752Z,18.88
2022-10-26T06:44:38.265Z,18.88
2022-10-26T06:45:09.682Z,18.88
2022-10-26T06:45:41.141Z,18.88
2022-10-26T06:46:12.523Z,18.88
2022-10-26T06:46:43.907Z,18.88
2022-10-26T06:47:18.601Z,18.89
2022-10-26T06:47:52.634Z,18.88